createdAt,value
2019-01-06T00:00:07.790Z,101842.22
2019-01-06T00:02:37.856Z,101845.00
2019-01-06T00:05:07.838Z,101843.20
2019-01-06T00:07:37.788Z,101841.91
2019-01-06T00:10:08.767Z,101843.62
2019-01-06T00:12:38.607Z,101847.20
2019-01-06T00:15:08.719Z,101848.41
2019-01-06T00:17:38.283Z,101844.62
2019-01-06T00:20:07.864Z,101848.52
2019-01-06T00:22:37.952Z,101851.50
2019-01-06T00:25:08.533Z,101855.02
2019-01-06T00:27:39.143Z,101857.11
2019-01-06T00:30:09.459Z,101859.33
2019-01-06T00:32:39.928Z,101856.31
2019-01-06T00:35:10.882Z,101866.16
2019-01-06T00:37:41.616Z,101866.88
2019-01-06T00:40:11.806Z,101866.95
2019-01-06T00:42:42.489Z,101867.92
2019-01-06T00:45:12.495Z,101862.64
2019-01-06T00:47:43.092Z,101867.53
2019-01-06T00:50:14.125Z,101871.48
2019-01-06T00:52:43.780Z,101874.56
2019-01-06T00:55:13.769Z,101874.50
2019-01-06T00:57:44.015Z,101877.10
2019-01-06T01:00:14.268Z,101877.23
2019-01-06T01:02:43.914Z,101891.22
2019-01-06T01:05:14.216Z,101889.92
2019-01-06T01:07:44.131Z,101888.16
2019-01-06T01:10:13.764Z,101883.91
2019-01-06T01:12:43.403Z,101888.55
2019-01-06T01:15:13.464Z,101896.81
2019-01-06T01:17:43.446Z,101899.02
2019-01-06T01:20:13.030Z,101900.32
2019-01-06T01:22:42.647Z,101897.72
2019-01-06T01:25:12.240Z,101899.84
2019-01-06T01:27:41.841Z,101904.95
2019-01-06T01:30:11.431Z,101905.76
2019-01-06T01:32:41.050Z,101905.20
2019-01-06T01:35:11.107Z,101902.10
2019-01-06T01:37:41.042Z,101904.47
2019-01-06T01:40:10.859Z,101904.61
2019-01-06T01:42:40.538Z,101906.41
2019-01-06T01:45:10.213Z,101909.07
2019-01-06T01:47:40.344Z,101910.39
2019-01-06T01:50:09.861Z,101904.31
2019-01-06T01:52:39.403Z,101904.31
2019-01-06T01:55:09.219Z,101907.77
2019-01-06T01:57:38.794Z,101910.31
2019-01-06T02:00:08.580Z,101909.02
2019-01-06T02:02:38.435Z,101910.70
2019-01-06T02:05:09.123Z,101914.59
2019-01-06T02:07:38.643Z,101915.30
2019-01-06T02:10:11.835Z,101921.80
2019-01-06T02:12:41.378Z,101925.48
2019-01-06T02:15:11.159Z,101921.23
2019-01-06T02:17:40.814Z,101924.30
2019-01-06T02:20:10.764Z,101927.34
2019-01-06T02:22:40.107Z,101925.06
2019-01-06T02:25:09.573Z,101917.27
2019-01-06T02:27:39.090Z,101921.97
2019-01-06T02:30:08.579Z,101923.66
2019-01-06T02:32:38.109Z,101920.58
2019-01-06T02:35:07.633Z,101926.98
2019-01-06T02:37:37.094Z,101923.00
2019-01-06T02:40:08.125Z,101928.28
2019-01-06T02:42:38.112Z,101936.55
2019-01-06T02:45:08.121Z,101935.80
2019-01-06T02:47:38.557Z,101924.66
2019-01-06T02:50:08.772Z,101930.60
2019-01-06T02:52:39.347Z,101933.20
2019-01-06T02:55:09.296Z,101935.41
2019-01-06T02:57:39.123Z,101937.59
2019-01-06T03:00:09.266Z,101944.50
2019-01-06T03:02:38.798Z,101945.86
2019-01-06T03:05:08.353Z,101944.50
2019-01-06T03:07:38.118Z,101940.52
2019-01-06T03:10:07.917Z,101933.11
2019-01-06T03:12:37.366Z,101933.99
2019-01-06T03:15:07.497Z,101934.84
2019-01-06T03:17:37.163Z,101925.95
2019-01-06T03:20:06.608Z,101925.95
2019-01-06T03:22:36.125Z,101935.42
2019-01-06T03:25:05.699Z,101936.09
2019-01-06T03:27:37.643Z,101947.55
2019-01-06T03:30:07.386Z,101946.31
2019-01-06T03:32:36.966Z,101944.35
2019-01-06T03:35:06.491Z,101939.98
2019-01-06T03:37:35.957Z,101939.98
2019-01-06T03:40:06.060Z,101943.53
2019-01-06T03:42:36.397Z,101939.57
2019-01-06T03:45:06.559Z,101943.97
2019-01-06T03:47:36.385Z,101939.67
2019-01-06T03:50:06.889Z,101938.34
2019-01-06T03:52:37.052Z,101940.52
2019-01-06T03:55:06.547Z,101940.05
2019-01-06T03:57:35.981Z,101948.66
2019-01-06T04:00:08.275Z,101941.69
2019-01-06T04:02:38.020Z,101936.50
2019-01-06T04:05:07.467Z,101936.56
2019-01-06T04:07:37.292Z,101949.95
2019-01-06T04:10:06.791Z,101946.44
2019-01-06T04:12:36.379Z,101953.28
2019-01-06T04:15:07.270Z,101950.27
2019-01-06T04:17:36.737Z,101950.69
2019-01-06T04:20:06.253Z,101952.84
2019-01-06T04:22:35.966Z,101959.77
2019-01-06T04:25:05.693Z,101956.32
2019-01-06T04:27:35.499Z,101952.30
2019-01-06T04:30:05.237Z,101949.77
2019-01-06T04:32:34.798Z,101950.15
2019-01-06T04:35:04.532Z,101950.49
2019-01-06T04:37:33.991Z,101946.25
2019-01-06T04:40:04.038Z,101945.37
2019-01-06T04:42:33.472Z,101941.41
2019-01-06T04:45:03.221Z,101942.70
2019-01-06T04:47:33.011Z,101937.42
2019-01-06T04:50:05.383Z,101941.22
2019-01-06T04:52:35.137Z,101940.74
2019-01-06T04:55:04.614Z,101942.39
2019-01-06T04:57:35.415Z,101947.41
2019-01-06T05:00:05.843Z,101944.66
2019-01-06T05:02:36.102Z,101945.92
2019-01-06T05:05:09.484Z,101943.64
2019-01-06T05:07:39.004Z,101953.84
2019-01-06T05:10:08.878Z,101953.34
2019-01-06T05:12:38.943Z,101946.82
2019-01-06T05:15:08.338Z,101948.42
2019-01-06T05:17:37.934Z,101952.87
2019-01-06T05:20:07.743Z,101954.12
2019-01-06T05:22:37.584Z,101952.42
2019-01-06T05:25:07.068Z,101955.63
2019-01-06T05:27:37.090Z,101952.56
2019-01-06T05:30:06.992Z,101961.23
2019-01-06T05:32:38.481Z,101955.56
2019-01-06T05:35:07.998Z,101960.64
2019-01-06T05:37:40.555Z,101964.12
2019-01-06T05:40:11.447Z,101965.69
2019-01-06T05:42:42.133Z,101964.80
2019-01-06T05:45:12.099Z,101963.61
2019-01-06T05:47:41.885Z,101966.61
2019-01-06T05:50:11.801Z,101966.98
2019-01-06T05:52:43.654Z,101959.23
2019-01-06T05:55:13.447Z,101977.59
2019-01-06T05:57:45.335Z,101973.70
2019-01-06T06:00:14.810Z,101976.30
2019-01-06T06:02:44.396Z,101970.38
2019-01-06T06:05:14.776Z,101980.75
2019-01-06T06:07:45.508Z,101978.67
2019-01-06T06:10:15.894Z,101980.27
2019-01-06T06:12:46.232Z,101983.76
2019-01-06T06:15:16.459Z,101990.13
2019-01-06T06:17:46.829Z,101999.27
2019-01-06T06:20:17.682Z,101999.68
2019-01-06T06:22:47.514Z,101997.17
2019-01-06T06:25:18.356Z,102000.36
2019-01-06T06:27:48.778Z,101999.80
2019-01-06T06:30:19.345Z,101997.80
2019-01-06T06:32:49.496Z,101995.69
2019-01-06T06:35:19.820Z,102003.16
2019-01-06T06:37:50.148Z,102004.45
2019-01-06T06:40:21.162Z,102013.98
2019-01-06T06:42:51.706Z,102011.93
2019-01-06T06:45:21.639Z,102016.27
2019-01-06T06:47:51.230Z,102016.37
2019-01-06T06:50:21.241Z,102017.74
2019-01-06T06:52:50.722Z,102018.26
2019-01-06T06:55:20.485Z,102026.00
2019-01-06T06:58:10.446Z,102026.05
2019-01-06T07:00:53.685Z,102025.34
2019-01-06T07:03:28.945Z,102025.05
2019-01-06T07:05:58.909Z,102031.62
2019-01-06T07:08:29.546Z,102035.62
2019-01-06T07:10:59.708Z,102036.03
2019-01-06T07:13:29.799Z,102039.07
2019-01-06T07:15:59.618Z,102043.41
2019-01-06T07:18:30.191Z,102048.66
2019-01-06T07:21:00.188Z,102058.66
2019-01-06T07:23:31.009Z,102056.07
2019-01-06T07:26:01.413Z,102064.37
2019-01-06T07:28:30.840Z,102064.44
2019-01-06T07:31:00.309Z,102055.84
2019-01-06T07:33:30.011Z,102069.22
2019-01-06T07:35:59.468Z,102072.25
2019-01-06T07:38:28.950Z,102072.73
2019-01-06T07:40:58.771Z,102078.81
2019-01-06T07:43:28.823Z,102076.70
2019-01-06T07:45:58.328Z,102074.55
2019-01-06T07:48:27.860Z,102069.36
2019-01-06T07:50:58.011Z,102071.62
2019-01-06T07:53:27.525Z,102066.88
2019-01-06T07:55:57.511Z,102068.72
2019-01-06T07:58:29.047Z,102078.31
2019-01-06T08:00:58.831Z,102074.02
2019-01-06T08:03:28.217Z,102081.84
2019-01-06T08:06:00.088Z,102083.95
2019-01-06T08:08:29.641Z,102089.73
2019-01-06T08:10:59.244Z,102082.35
2019-01-06T08:13:28.995Z,102091.02
2019-01-06T08:15:58.527Z,102093.80
2019-01-06T08:18:28.137Z,102085.30
2019-01-06T08:20:57.935Z,102092.64
2019-01-06T08:23:27.401Z,102094.48
2019-01-06T08:25:57.425Z,102102.08
2019-01-06T08:28:26.907Z,102106.62
2019-01-06T08:30:57.162Z,102100.61
2019-01-06T08:33:26.867Z,102106.83
2019-01-06T08:35:56.649Z,102113.19
2019-01-06T08:38:26.173Z,102105.61
2019-01-06T08:40:55.978Z,102112.20
2019-01-06T08:43:25.714Z,102109.78
2019-01-06T08:45:55.220Z,102112.89
2019-01-06T08:48:25.025Z,102110.87
2019-01-06T08:50:54.754Z,102117.59
2019-01-06T08:53:24.440Z,102113.77
2019-01-06T08:55:53.962Z,102115.88
2019-01-06T08:58:26.448Z,102113.29
2019-01-06T09:00:58.361Z,102113.97
2019-01-06T09:03:27.878Z,102108.97
2019-01-06T09:05:57.429Z,102114.64
2019-01-06T09:08:30.349Z,102111.42
2019-01-06T09:11:00.181Z,102112.23
2019-01-06T09:13:30.157Z,102120.30
2019-01-06T09:15:59.578Z,102118.62
2019-01-06T09:18:29.414Z,102122.92
2019-01-06T09:21:01.908Z,102125.63
2019-01-06T09:23:31.323Z,102128.31
2019-01-06T09:26:01.412Z,102133.20
2019-01-06T09:28:32.406Z,102130.00
2019-01-06T09:31:01.853Z,102130.66
2019-01-06T09:33:31.731Z,102131.30
2019-01-06T09:36:02.649Z,102127.50
2019-01-06T09:38:32.768Z,102133.23
2019-01-06T09:41:02.848Z,102128.86
2019-01-06T09:43:32.345Z,102131.62
2019-01-06T09:46:02.137Z,102131.27
2019-01-06T09:48:32.319Z,102128.67
2019-01-06T09:51:02.046Z,102132.79
2019-01-06T09:53:31.450Z,102129.30
2019-01-06T09:56:00.966Z,102131.99
2019-01-06T09:58:30.494Z,102136.23
2019-01-06T10:01:00.534Z,102132.44
2019-01-06T10:03:30.147Z,102132.11
2019-01-06T10:05:59.892Z,102124.77
2019-01-06T10:08:29.231Z,102127.89
2019-01-06T10:10:59.053Z,102124.38
2019-01-06T10:13:28.747Z,102120.98
2019-01-06T10:15:58.134Z,102114.63
2019-01-06T10:18:28.129Z,102119.92
2019-01-06T10:20:58.168Z,102113.86
2019-01-06T10:23:27.494Z,102118.30
2019-01-06T10:25:56.980Z,102106.16
2019-01-06T10:28:27.310Z,102109.31
2019-01-06T10:30:57.354Z,102112.06
2019-01-06T10:33:27.429Z,102117.77
2019-01-06T10:35:57.381Z,102121.37
2019-01-06T10:38:26.848Z,102121.05
2019-01-06T10:40:57.527Z,102103.64
2019-01-06T10:43:27.000Z,102106.30
2019-01-06T10:45:56.809Z,102103.79
2019-01-06T10:48:26.615Z,102099.56
2019-01-06T10:50:56.410Z,102106.65
2019-01-06T10:53:25.894Z,102108.34
2019-01-06T10:55:58.487Z,102099.84
2019-01-06T10:58:31.705Z,102100.67
2019-01-06T11:01:01.137Z,102097.13
2019-01-06T11:03:30.578Z,102105.49
2019-01-06T11:06:00.436Z,102102.06
2019-01-06T11:08:30.240Z,102109.95
2019-01-06T11:11:00.303Z,102105.08
2019-01-06T11:13:30.084Z,102109.13
2019-01-06T11:15:59.815Z,102107.85
2019-01-06T11:18:29.794Z,102113.11
2019-01-06T11:21:00.011Z,102110.12
2019-01-06T11:23:29.439Z,102110.20
2019-01-06T11:25:58.961Z,102108.98
2019-01-06T11:28:28.461Z,102102.13
2019-01-06T11:30:57.947Z,102107.80
2019-01-06T11:33:27.465Z,102103.92
2019-01-06T11:35:57.088Z,102107.91
2019-01-06T11:38:26.858Z,102107.66
2019-01-06T11:40:58.345Z,102101.98
2019-01-06T11:43:27.741Z,102102.76
2019-01-06T11:45:57.598Z,102100.23
2019-01-06T11:48:27.387Z,102095.55
2019-01-06T11:51:00.013Z,102092.36
2019-01-06T11:53:29.407Z,102088.94
2019-01-06T11:55:59.168Z,102093.48
2019-01-06T11:58:28.651Z,102098.27
2019-01-06T12:00:58.128Z,102101.82
2019-01-06T12:03:27.918Z,102104.99
2019-01-06T12:05:57.384Z,102103.53
2019-01-06T12:08:27.045Z,102101.09
2019-01-06T12:10:56.432Z,102098.01
2019-01-06T12:13:26.151Z,102098.97
2019-01-06T12:15:55.541Z,102093.50
2019-01-06T12:18:25.374Z,102099.05
2019-01-06T12:20:54.860Z,102096.84
2019-01-06T12:23:27.012Z,102104.88
2019-01-06T12:25:57.222Z,102092.27
2019-01-06T12:28:27.200Z,102098.63
2019-01-06T12:30:56.665Z,102092.54
2019-01-06T12:33:26.191Z,102092.95
2019-01-06T12:35:57.237Z,102091.16
2019-01-06T12:38:27.367Z,102090.20
2019-01-06T12:40:56.974Z,102099.58
2019-01-06T12:43:26.716Z,102099.30
2019-01-06T12:45:56.453Z,102096.87
2019-01-06T12:48:25.990Z,102098.69
2019-01-06T12:50:55.515Z,102098.61
2019-01-06T12:53:25.202Z,102102.92
2019-01-06T12:55:54.773Z,102101.19
2019-01-06T12:58:24.740Z,102093.41
2019-01-06T13:00:54.399Z,102101.97
2019-01-06T13:03:23.981Z,102101.13
2019-01-06T13:05:56.656Z,102101.27
2019-01-06T13:08:26.117Z,102103.01
2019-01-06T13:10:55.624Z,102104.28
2019-01-06T13:13:25.105Z,102101.27
2019-01-06T13:15:54.829Z,102108.12
2019-01-06T13:18:24.455Z,102103.81
2019-01-06T13:20:53.966Z,102108.61
2019-01-06T13:23:23.433Z,102106.73
2019-01-06T13:32:50.186Z,102111.80
2019-01-06T13:35:19.796Z,102113.19
2019-01-06T13:37:49.609Z,102118.64
2019-01-06T13:40:18.978Z,102122.69
2019-01-06T13:42:48.440Z,102119.18
2019-01-06T13:45:18.556Z,102116.58
2019-01-06T13:47:48.357Z,102120.89
2019-01-06T13:50:17.765Z,102116.84
2019-01-06T13:52:47.481Z,102109.43
2019-01-06T13:55:18.023Z,102113.26
2019-01-06T13:57:48.378Z,102112.78
2019-01-06T14:00:18.602Z,102112.55
2019-01-06T14:02:49.161Z,102109.88
2019-01-06T14:05:18.919Z,102112.47
2019-01-06T14:07:49.007Z,102113.20
2019-01-06T14:10:18.828Z,102110.81
2019-01-06T14:12:48.597Z,102112.78
2019-01-06T14:15:18.672Z,102111.01
2019-01-06T14:17:49.752Z,102114.00
2019-01-06T14:20:19.522Z,102115.30
2019-01-06T14:22:49.608Z,102121.81
2019-01-06T14:25:19.784Z,102119.68
2019-01-06T14:27:50.730Z,102119.68
2019-01-06T14:30:21.046Z,102114.14
2019-01-06T14:32:50.823Z,102110.98
2019-01-06T14:35:21.043Z,102112.64
2019-01-06T14:37:51.927Z,102115.78
2019-01-06T14:40:22.123Z,102120.37
2019-01-06T14:42:52.644Z,102122.97
2019-01-06T14:45:22.542Z,102128.16
2019-01-06T14:47:53.501Z,102130.26
2019-01-06T14:50:23.951Z,102135.37
2019-01-06T14:52:54.240Z,102137.18
2019-01-06T14:55:24.455Z,102133.19
2019-01-06T14:57:54.362Z,102143.54
2019-01-06T15:00:24.115Z,102146.20
2019-01-06T15:02:53.653Z,102142.23
2019-01-06T15:05:23.324Z,102140.02
2019-01-06T15:07:53.109Z,102146.47
2019-01-06T15:10:23.294Z,102146.86
2019-01-06T15:12:53.399Z,102149.45
2019-01-06T15:15:23.179Z,102142.13
2019-01-06T15:17:53.034Z,102147.77
2019-01-06T15:20:22.805Z,102152.06
2019-01-06T15:22:52.591Z,102158.98
2019-01-06T15:25:23.523Z,102146.77
2019-01-06T15:27:53.296Z,102151.50
2019-01-06T15:30:23.056Z,102146.70
2019-01-06T15:32:53.490Z,102143.61
2019-01-06T15:35:23.239Z,102143.95
2019-01-06T15:37:52.742Z,102150.91
2019-01-06T15:40:22.571Z,102156.97
2019-01-06T15:42:52.283Z,102146.91
2019-01-06T15:45:21.752Z,102153.39
2019-01-06T15:47:51.818Z,102155.99
2019-01-06T15:50:21.893Z,102161.20
2019-01-06T15:52:51.884Z,102158.53
2019-01-06T15:55:21.666Z,102159.80
2019-01-06T15:57:51.820Z,102155.91
2019-01-06T16:00:21.900Z,102162.82
2019-01-06T16:02:52.423Z,102158.86
2019-01-06T16:05:22.187Z,102162.32
2019-01-06T16:07:52.750Z,102159.66
2019-01-06T16:10:23.018Z,102162.64
2019-01-06T16:12:53.488Z,102174.83
2019-01-06T16:15:23.618Z,102173.05
2019-01-06T16:17:53.580Z,102170.45
2019-01-06T16:20:23.179Z,102167.84
2019-01-06T16:22:52.789Z,102171.75
2019-01-06T16:25:22.706Z,102171.75
2019-01-06T16:27:52.596Z,102163.56
2019-01-06T16:30:22.804Z,102169.56
2019-01-06T16:32:52.762Z,102170.38
2019-01-06T16:35:23.028Z,102166.90
2019-01-06T16:37:52.978Z,102174.70
2019-01-06T16:40:22.850Z,102180.77
2019-01-06T16:42:52.674Z,102179.05
2019-01-06T16:45:22.720Z,102178.60
2019-01-06T16:47:52.283Z,102171.19
2019-01-06T16:50:21.847Z,102171.19
2019-01-06T16:52:51.346Z,102178.98
2019-01-06T16:55:21.569Z,102171.59
2019-01-06T16:57:51.328Z,102169.41
2019-01-06T17:00:21.153Z,102171.16
2019-01-06T17:02:59.948Z,102178.09
2019-01-06T17:05:29.421Z,102178.52
2019-01-06T17:07:58.907Z,102169.88
2019-01-06T17:10:28.528Z,102179.05
2019-01-06T17:12:57.949Z,102178.07
2019-01-06T17:15:27.600Z,102177.27
2019-01-06T17:17:57.120Z,102182.48
2019-01-06T17:20:26.589Z,102179.91
2019-01-06T17:22:56.054Z,102182.95
2019-01-06T17:25:25.965Z,102179.97
2019-01-06T17:27:55.522Z,102176.06
2019-01-06T17:30:25.040Z,102177.75
2019-01-06T17:32:54.662Z,102175.65
2019-01-06T17:35:24.948Z,102179.88
2019-01-06T17:37:55.198Z,102179.08
2019-01-06T17:40:26.003Z,102169.97
2019-01-06T17:42:55.986Z,102172.63
2019-01-06T17:45:26.892Z,102172.58
2019-01-06T17:47:56.703Z,102174.70
2019-01-06T17:50:26.199Z,102179.08
2019-01-06T17:52:56.000Z,102176.00
2019-01-06T17:55:25.666Z,102172.95
2019-01-06T17:57:55.513Z,102174.26
2019-01-06T18:00:25.288Z,102178.60
2019-01-06T18:02:54.805Z,102183.45
2019-01-06T18:05:24.320Z,102188.24
2019-01-06T18:07:53.832Z,102181.67
2019-01-06T18:10:24.266Z,102191.17
2019-01-06T18:12:54.289Z,102191.61
2019-01-06T18:15:24.138Z,102184.19
2019-01-06T18:17:53.743Z,102186.88
2019-01-06T18:20:23.289Z,102189.87
2019-01-06T18:22:52.782Z,102188.09
2019-01-06T18:25:22.562Z,102185.97
2019-01-06T18:27:52.060Z,102185.46
2019-01-06T18:30:21.561Z,102184.59
2019-01-06T18:32:51.084Z,102177.21
2019-01-06T18:35:20.566Z,102183.80
2019-01-06T18:37:50.186Z,102183.93
2019-01-06T18:40:20.300Z,102182.50
2019-01-06T18:42:50.091Z,102180.44
2019-01-06T18:45:19.878Z,102174.77
2019-01-06T18:47:49.347Z,102182.98
2019-01-06T18:50:19.121Z,102180.86
2019-01-06T18:52:48.623Z,102182.66
2019-01-06T18:55:18.162Z,102180.97
2019-01-06T18:57:47.922Z,102184.84
2019-01-06T19:00:17.429Z,102177.55
2019-01-06T19:02:46.950Z,102184.14
2019-01-06T19:05:16.744Z,102181.03
2019-01-06T19:07:46.570Z,102178.84
2019-01-06T19:10:16.440Z,102179.73
2019-01-06T19:12:46.172Z,102178.52
2019-01-06T19:15:16.228Z,102180.30
2019-01-06T19:17:46.068Z,102187.16
2019-01-06T19:20:15.601Z,102173.32
2019-01-06T19:22:45.376Z,102178.94
2019-01-06T19:25:14.925Z,102179.26
2019-01-06T19:27:44.348Z,102180.56
2019-01-06T19:30:14.123Z,102185.59
2019-01-06T19:32:44.340Z,102182.10
2019-01-06T19:35:14.202Z,102185.71
2019-01-06T19:37:43.600Z,102185.23
2019-01-06T19:40:13.176Z,102186.48
2019-01-06T19:42:42.697Z,102188.10
2019-01-06T19:45:12.241Z,102191.23
2019-01-06T19:47:41.785Z,102194.34
2019-01-06T19:50:11.306Z,102195.14
2019-01-06T19:52:41.095Z,102196.83
2019-01-06T19:55:10.675Z,102195.59
2019-01-06T19:57:46.888Z,102193.39
2019-01-06T20:00:12.447Z,102193.75
2019-01-06T20:02:41.977Z,102188.04
2019-01-06T20:05:11.480Z,102194.95
2019-01-06T20:07:40.971Z,102192.73
2019-01-06T20:10:10.508Z,102190.05
2019-01-06T20:12:40.029Z,102194.87
2019-01-06T20:15:09.520Z,102182.66
2019-01-06T20:17:40.116Z,102191.34
2019-01-06T20:20:09.589Z,102190.97
2019-01-06T20:22:39.208Z,102192.77
2019-01-06T20:25:08.720Z,102197.12
2019-01-06T20:27:38.277Z,102196.64
2019-01-06T20:30:08.332Z,102195.75
2019-01-06T20:32:37.965Z,102200.93
2019-01-06T20:35:07.489Z,102197.44
2019-01-06T20:37:37.233Z,102199.72
2019-01-06T20:40:07.342Z,102197.53
2019-01-06T20:42:36.886Z,102197.12
2019-01-06T20:45:06.988Z,102198.45
2019-01-06T20:47:37.308Z,102200.25
2019-01-06T20:50:07.330Z,102201.02
2019-01-06T20:52:41.967Z,102197.56
2019-01-06T20:55:09.758Z,102195.91
2019-01-06T20:57:39.395Z,102193.34
2019-01-06T21:00:09.339Z,102196.34
2019-01-06T21:02:39.691Z,102199.48
2019-01-06T21:05:09.242Z,102194.22
2019-01-06T21:07:39.647Z,102196.00
2019-01-06T21:10:10.078Z,102204.24
2019-01-06T21:12:39.715Z,102199.84
2019-01-06T21:15:09.222Z,102203.80
2019-01-06T21:17:38.900Z,102210.75
2019-01-06T21:20:08.405Z,102207.42
2019-01-06T21:22:38.202Z,102208.59
2019-01-06T21:25:08.014Z,102209.80
2019-01-06T21:27:37.421Z,102205.45
2019-01-06T21:30:07.705Z,102202.85
2019-01-06T21:32:37.396Z,102205.13
2019-01-06T21:35:07.009Z,102206.41
2019-01-06T21:37:36.732Z,102206.41
2019-01-06T21:40:07.427Z,102202.91
2019-01-06T21:42:37.213Z,102196.83
2019-01-06T21:45:07.373Z,102187.72
2019-01-06T21:47:36.904Z,102189.41
2019-01-06T21:50:06.429Z,102191.14
2019-01-06T21:52:36.010Z,102194.20
2019-01-06T21:55:05.881Z,102191.95
2019-01-06T21:57:35.827Z,102188.93
2019-01-06T22:00:06.124Z,102197.47
2019-01-06T22:02:35.617Z,102190.14
2019-01-06T22:05:05.177Z,102195.82
2019-01-06T22:07:34.718Z,102194.42
2019-01-06T22:10:04.785Z,102191.85
2019-01-06T22:12:34.283Z,102190.14
2019-01-06T22:15:03.770Z,102188.45
2019-01-06T22:17:33.356Z,102181.12
2019-01-06T22:20:02.959Z,102190.61
2019-01-06T22:22:32.816Z,102187.24
2019-01-06T22:25:02.557Z,102185.85
2019-01-06T22:27:32.356Z,102185.09
2019-01-06T22:30:01.839Z,102180.30
2019-01-06T22:32:31.716Z,102179.44
2019-01-06T22:35:02.156Z,102183.34
2019-01-06T22:37:32.570Z,102175.19
2019-01-06T22:40:03.012Z,102182.52
2019-01-06T22:42:33.595Z,102183.34
2019-01-06T22:45:03.299Z,102188.52
2019-01-06T22:47:33.444Z,102187.24
2019-01-06T22:50:03.734Z,102179.88
2019-01-06T22:52:37.089Z,102188.93
2019-01-06T22:55:06.513Z,102192.45
2019-01-06T22:57:36.522Z,102192.03
2019-01-06T23:00:18.013Z,102189.34
2019-01-06T23:02:47.454Z,102186.80
2019-01-06T23:05:17.313Z,102196.34
2019-01-06T23:07:46.804Z,102187.62
2019-01-06T23:10:16.681Z,102192.00
2019-01-06T23:12:46.438Z,102189.84
2019-01-06T23:15:16.362Z,102195.75
2019-01-06T23:17:47.075Z,102191.92
2019-01-06T23:20:17.100Z,102197.12
2019-01-06T23:22:46.859Z,102195.02
2019-01-06T23:25:16.756Z,102190.61
2019-01-06T23:27:46.454Z,102190.70
2019-01-06T23:30:16.008Z,102190.14
2019-01-06T23:32:46.223Z,102188.86
2019-01-06T23:35:15.578Z,102193.63
2019-01-06T23:37:45.061Z,102190.14
2019-01-06T23:40:15.178Z,102192.33
2019-01-06T23:42:45.127Z,102198.92
2019-01-06T23:45:15.258Z,102193.34
2019-01-06T23:47:44.763Z,102197.62
2019-01-06T23:50:14.515Z,102195.84
2019-01-06T23:52:43.903Z,102196.23
2019-01-06T23:55:13.426Z,102204.45
2019-01-06T23:57:42.836Z,102193.22
